createdAt,value
2019-02-19T00:01:04.906Z,126.53
2019-02-19T00:03:45.926Z,99.17
2019-02-19T00:06:16.356Z,108.70
2019-02-19T00:08:52.329Z,127.27
2019-02-19T00:11:23.794Z,127.83
2019-02-19T00:13:58.716Z,118.77
2019-02-19T00:16:38.069Z,115.03
2019-02-19T00:19:09.426Z,128.60
2019-02-19T00:21:41.698Z,125.70
2019-02-19T00:24:18.578Z,112.27
2019-02-19T00:26:53.096Z,107.07
2019-02-19T00:29:24.455Z,110.40
2019-02-19T00:32:01.585Z,112.97
2019-02-19T00:34:32.116Z,113.90
2019-02-19T00:37:05.233Z,121.30
2019-02-19T00:39:38.362Z,120.53
2019-02-19T00:42:11.108Z,124.83
2019-02-19T00:44:40.972Z,105.47
2019-02-19T00:47:12.648Z,109.03
2019-02-19T00:49:46.332Z,119.20
2019-02-19T00:52:19.535Z,117.07
2019-02-19T00:55:01.071Z,124.37
2019-02-19T00:57:35.114Z,136.87
2019-02-19T01:00:07.331Z,132.23
2019-02-19T01:02:37.393Z,150.30
2019-02-19T01:05:12.554Z,150.67
2019-02-19T01:07:53.146Z,169.33
2019-02-19T01:10:24.276Z,148.20
2019-02-19T01:13:00.450Z,143.10
2019-02-19T01:15:34.268Z,130.90
2019-02-19T01:18:07.064Z,148.43
2019-02-19T01:20:39.823Z,153.90
2019-02-19T01:23:15.067Z,149.90
2019-02-19T01:25:51.337Z,155.20
2019-02-19T01:28:29.856Z,148.90
2019-02-19T01:31:04.074Z,130.20
2019-02-19T01:33:37.861Z,128.23
2019-02-19T01:36:13.697Z,136.23
2019-02-19T01:38:51.273Z,122.30
2019-02-19T01:41:28.342Z,107.93
2019-02-19T01:44:03.426Z,107.03
2019-02-19T01:46:45.218Z,87.20
2019-02-19T01:49:17.847Z,79.03
2019-02-19T01:51:52.956Z,81.63
2019-02-19T01:54:28.461Z,92.87
2019-02-19T01:57:08.846Z,80.20
2019-02-19T01:59:44.084Z,89.67
2019-02-19T02:02:15.058Z,87.37
2019-02-19T02:04:46.941Z,86.97
2019-02-19T02:07:19.042Z,86.00
2019-02-19T02:09:53.409Z,90.13
2019-02-19T02:12:26.919Z,92.60
2019-02-19T02:15:16.467Z,88.67
2019-02-19T02:17:52.161Z,102.83
2019-02-19T02:20:26.663Z,118.07
2019-02-19T02:23:08.474Z,104.70
2019-02-19T02:25:44.707Z,103.43
2019-02-19T02:28:17.209Z,104.50
2019-02-19T02:30:51.075Z,90.17
2019-02-19T02:33:24.893Z,96.80
2019-02-19T02:35:57.078Z,95.63
2019-02-19T02:38:29.621Z,91.40
2019-02-19T02:41:07.022Z,93.80
2019-02-19T02:43:39.802Z,90.63
2019-02-19T02:46:15.463Z,97.07
2019-02-19T02:48:50.843Z,90.63
2019-02-19T02:51:31.396Z,86.83
2019-02-19T02:54:04.907Z,90.03
2019-02-19T02:56:38.243Z,83.77
2019-02-19T02:59:15.049Z,84.73
2019-02-19T03:01:45.608Z,83.10
2019-02-19T03:04:17.460Z,78.50
2019-02-19T03:06:49.366Z,78.40
2019-02-19T03:09:20.775Z,86.47
2019-02-19T03:11:51.898Z,79.67
2019-02-19T03:14:21.705Z,81.63
2019-02-19T03:16:53.273Z,81.27
2019-02-19T03:19:26.442Z,78.83
2019-02-19T03:22:14.566Z,78.23
2019-02-19T03:24:48.313Z,81.93
2019-02-19T03:27:21.509Z,75.50
2019-02-19T03:29:58.179Z,73.87
2019-02-19T03:32:35.816Z,78.23
2019-02-19T03:35:12.948Z,76.00
2019-02-19T03:37:47.913Z,78.97
2019-02-19T03:40:21.239Z,72.83
2019-02-19T03:42:54.723Z,80.73
2019-02-19T03:45:28.902Z,75.57
2019-02-19T03:48:03.372Z,77.40
2019-02-19T03:50:41.727Z,76.17
2019-02-19T03:53:15.900Z,71.57
2019-02-19T03:55:48.797Z,79.40
2019-02-19T03:58:19.506Z,73.57
2019-02-19T04:00:52.772Z,79.03
2019-02-19T04:03:25.911Z,73.33
2019-02-19T04:05:56.363Z,67.43
2019-02-19T04:08:29.215Z,65.20
2019-02-19T04:11:06.524Z,69.90
2019-02-19T04:13:37.838Z,70.40
2019-02-19T04:16:10.276Z,71.20
2019-02-19T04:18:42.636Z,74.93
2019-02-19T04:21:16.320Z,68.40
2019-02-19T04:23:51.675Z,68.73
2019-02-19T04:26:25.782Z,69.10
2019-02-19T04:28:59.909Z,67.47
2019-02-19T04:31:39.647Z,67.00
2019-02-19T04:34:24.414Z,70.13
2019-02-19T04:36:50.260Z,66.90
2019-02-19T04:39:29.323Z,61.80
2019-02-19T04:42:01.709Z,72.53
2019-02-19T04:44:34.602Z,67.23
2019-02-19T04:47:28.474Z,68.17
2019-02-19T04:50:14.854Z,61.17
2019-02-19T04:52:53.972Z,71.53
2019-02-19T04:55:26.259Z,67.80
2019-02-19T04:57:56.954Z,58.63
2019-02-19T05:00:29.732Z,60.27
2019-02-19T05:03:02.422Z,60.13
2019-02-19T05:05:39.230Z,62.47
2019-02-19T05:08:11.241Z,58.57
2019-02-19T05:10:51.091Z,71.70
2019-02-19T05:13:23.204Z,66.73
2019-02-19T05:15:52.074Z,68.57
2019-02-19T05:18:26.030Z,71.33
2019-02-19T05:20:58.770Z,67.23
2019-02-19T05:23:31.979Z,55.97
2019-02-19T05:26:04.123Z,50.43
2019-02-19T05:28:36.298Z,37.30
2019-02-19T05:31:32.542Z,33.97
2019-02-19T05:34:14.038Z,33.13
2019-02-19T05:36:44.973Z,31.13
2019-02-19T05:39:26.306Z,26.07
2019-02-19T05:41:59.082Z,34.07
2019-02-19T05:46:05.669Z,48.67
2019-02-19T05:48:38.142Z,57.03
2019-02-19T05:51:16.404Z,56.87
2019-02-19T05:53:52.700Z,69.63
2019-02-19T05:56:27.719Z,70.93
2019-02-19T05:59:03.609Z,57.13
2019-02-19T06:01:45.664Z,58.97
2019-02-19T06:04:23.722Z,51.50
2019-02-19T06:06:56.079Z,53.60
2019-02-19T06:09:28.928Z,49.37
2019-02-19T06:11:59.899Z,55.50
2019-02-19T06:14:41.618Z,53.93
2019-02-19T06:17:17.839Z,52.40
2019-02-19T06:20:11.781Z,57.20
2019-02-19T06:23:04.935Z,65.70
2019-02-19T06:25:36.922Z,59.27
2019-02-19T06:31:08.366Z,58.43
2019-02-19T06:33:57.307Z,55.70
2019-02-19T06:36:33.998Z,61.87
2019-02-19T06:39:14.571Z,68.33
2019-02-19T06:41:50.717Z,71.10
2019-02-19T06:44:31.103Z,60.97
2019-02-19T06:53:04.815Z,79.13
2019-02-19T06:55:44.995Z,83.60
2019-02-19T06:58:20.466Z,82.57
2019-02-19T07:01:11.647Z,97.07
2019-02-19T07:03:48.303Z,87.80
2019-02-19T07:06:31.774Z,84.63
2019-02-19T07:09:11.379Z,89.83
2019-02-19T07:17:50.275Z,78.70
2019-02-19T07:20:41.470Z,77.93
2019-02-19T07:23:35.540Z,75.50
2019-02-19T07:26:13.600Z,69.90
2019-02-19T07:28:52.405Z,62.47
2019-02-19T07:31:32.467Z,57.70
2019-02-19T07:34:06.521Z,71.83
2019-02-19T07:36:42.493Z,71.17
2019-02-19T07:42:10.825Z,87.30
2019-02-19T07:45:17.938Z,84.13
2019-02-19T07:47:49.477Z,83.03
2019-02-19T07:50:26.075Z,83.53
2019-02-19T07:53:33.701Z,85.93
2019-02-19T08:12:06.784Z,57.07
2019-02-19T08:14:59.903Z,62.17
2019-02-19T08:21:08.279Z,63.80
2019-02-19T08:26:38.595Z,67.17
2019-02-19T08:29:15.837Z,60.77
2019-02-19T08:35:17.957Z,52.63
2019-02-19T08:38:09.368Z,47.77
2019-02-19T08:49:19.723Z,48.33
2019-02-19T08:52:15.563Z,48.80
2019-02-19T08:54:45.169Z,44.87
2019-02-19T09:00:51.425Z,49.37
2019-02-19T09:03:41.084Z,53.10
2019-02-19T09:06:21.131Z,45.60
2019-02-19T09:08:57.983Z,51.97
2019-02-19T09:11:35.079Z,50.23
2019-02-19T09:14:38.775Z,52.13
2019-02-19T09:17:18.487Z,54.30
2019-02-19T09:19:52.735Z,53.13
2019-02-19T09:25:18.112Z,53.67
2019-02-19T09:27:54.542Z,48.60
2019-02-19T09:30:42.881Z,52.27
2019-02-19T09:33:26.890Z,49.40
2019-02-19T09:39:02.087Z,51.37
2019-02-19T09:44:55.328Z,48.20
2019-02-19T09:47:32.675Z,50.87
2019-02-19T09:52:59.938Z,48.73
2019-02-19T09:55:36.094Z,42.57
2019-02-19T09:58:10.469Z,42.80
2019-02-19T10:00:52.585Z,48.77
2019-02-19T10:03:31.395Z,49.90
2019-02-19T10:06:11.249Z,43.00
2019-02-19T10:09:03.330Z,44.40
2019-02-19T10:23:54.430Z,39.07
2019-02-19T10:26:37.908Z,44.00
2019-02-19T10:29:17.087Z,40.77
2019-02-19T10:32:05.936Z,47.97
2019-02-19T10:38:07.900Z,45.67
2019-02-19T10:40:49.085Z,39.47
2019-02-19T10:43:23.501Z,35.07
2019-02-19T10:45:58.022Z,39.93
2019-02-19T10:48:32.509Z,40.30
2019-02-19T10:51:05.750Z,40.93
2019-02-19T10:53:49.549Z,38.77
2019-02-19T10:56:23.277Z,40.07
2019-02-19T10:59:17.351Z,41.60
2019-02-19T11:01:55.131Z,39.73
2019-02-19T11:04:30.063Z,40.57
2019-02-19T11:07:09.539Z,41.20
2019-02-19T11:09:53.701Z,39.30
2019-02-19T11:12:27.653Z,38.73
2019-02-19T11:15:01.121Z,36.80
2019-02-19T11:17:39.782Z,36.47
2019-02-19T11:20:17.111Z,39.03
2019-02-19T11:22:56.859Z,39.53
2019-02-19T11:25:28.616Z,36.63
2019-02-19T11:28:04.765Z,41.83
2019-02-19T11:30:45.176Z,38.93
2019-02-19T11:33:20.014Z,37.90
2019-02-19T11:35:54.877Z,36.00
2019-02-19T11:38:29.051Z,40.93
2019-02-19T11:41:06.507Z,41.23
2019-02-19T11:43:45.553Z,37.50
2019-02-19T11:46:22.874Z,40.57
2019-02-19T11:48:59.901Z,40.00
2019-02-19T11:51:43.985Z,43.27
2019-02-19T11:57:16.393Z,40.43
2019-02-19T11:59:56.129Z,38.47
2019-02-19T12:02:38.085Z,37.00
2019-02-19T12:05:18.048Z,34.47
2019-02-19T12:07:56.729Z,35.80
2019-02-19T12:10:36.445Z,40.80
2019-02-19T12:13:12.068Z,41.17
2019-02-19T12:15:45.051Z,37.20
2019-02-19T12:18:16.476Z,37.77
2019-02-19T12:20:46.818Z,38.47
2019-02-19T12:23:27.625Z,39.40
2019-02-19T12:25:58.169Z,31.57
2019-02-19T12:28:42.101Z,37.13
2019-02-19T12:31:12.423Z,38.43
2019-02-19T12:33:53.095Z,38.37
2019-02-19T12:36:28.060Z,34.63
2019-02-19T12:39:19.515Z,32.77
2019-02-19T12:41:57.166Z,29.47
2019-02-19T12:44:30.869Z,32.87
2019-02-19T12:47:20.448Z,41.47
2019-02-19T12:50:05.931Z,34.53
2019-02-19T12:52:44.611Z,33.87
2019-02-19T12:55:18.189Z,40.77
2019-02-19T12:57:55.681Z,44.97
2019-02-19T13:00:49.027Z,39.20
2019-02-19T13:03:23.515Z,39.37
2019-02-19T13:05:58.190Z,44.13
2019-02-19T13:08:48.049Z,41.40
2019-02-19T13:15:08.932Z,32.47
2019-02-19T13:17:55.618Z,39.70
2019-02-19T13:21:37.175Z,30.63
2019-02-19T13:26:15.511Z,21.97
2019-02-19T13:28:50.707Z,22.83
2019-02-19T13:34:22.790Z,22.90
2019-02-19T13:37:19.052Z,23.50
2019-02-19T13:40:01.293Z,19.53
2019-02-19T13:42:36.485Z,20.90
2019-02-19T13:45:22.017Z,18.83
2019-02-19T13:48:05.851Z,19.20
2019-02-19T13:50:43.465Z,18.70
2019-02-19T13:53:39.822Z,17.80
2019-02-19T13:56:16.674Z,18.20
2019-02-19T13:58:51.070Z,15.97
2019-02-19T14:01:28.952Z,18.87
2019-02-19T14:04:05.290Z,13.40
2019-02-19T14:06:38.858Z,11.60
2019-02-19T14:09:17.417Z,16.37
2019-02-19T14:11:53.868Z,12.87
2019-02-19T14:14:32.540Z,16.07
2019-02-19T14:17:06.342Z,13.30
2019-02-19T14:19:43.812Z,14.40
2019-02-19T14:22:23.789Z,13.07
2019-02-19T14:25:04.448Z,15.53
2019-02-19T14:27:54.831Z,14.93
2019-02-19T14:33:29.992Z,16.27
2019-02-19T14:36:14.256Z,12.73
2019-02-19T14:38:57.110Z,13.30
2019-02-19T14:41:35.050Z,14.40
2019-02-19T14:49:52.141Z,13.77
2019-02-19T14:52:30.400Z,14.43
2019-02-19T14:55:23.228Z,14.30
2019-02-19T14:57:56.695Z,13.90
2019-02-19T15:00:49.098Z,12.90
2019-02-19T15:03:25.239Z,13.13
2019-02-19T15:06:08.963Z,13.93
2019-02-19T15:08:59.489Z,14.50
2019-02-19T15:11:49.750Z,16.13
2019-02-19T15:14:35.681Z,14.00
2019-02-19T15:17:22.874Z,14.87
2019-02-19T15:20:12.498Z,15.17
2019-02-19T15:22:55.679Z,16.20
2019-02-19T15:25:37.290Z,11.83
2019-02-19T15:28:32.891Z,18.13
2019-02-19T15:31:06.860Z,17.90
2019-02-19T15:33:46.466Z,17.30
2019-02-19T15:36:37.460Z,18.00
2019-02-19T15:39:19.214Z,18.83
2019-02-19T15:42:02.679Z,14.73
2019-02-19T15:44:55.107Z,20.00
2019-02-19T15:47:30.927Z,20.37
2019-02-19T15:50:22.298Z,18.90
2019-02-19T15:53:02.411Z,22.50
2019-02-19T15:55:37.753Z,22.13
2019-02-19T15:58:31.867Z,19.87
2019-02-19T16:01:33.791Z,19.83
2019-02-19T16:04:17.242Z,20.90
2019-02-19T16:06:58.760Z,22.17
2019-02-19T16:09:34.309Z,22.10
2019-02-19T16:14:16.238Z,28.50
2019-02-19T16:15:42.018Z,25.37
2019-02-19T16:18:20.716Z,25.80
2019-02-19T16:21:12.232Z,23.33
2019-02-19T16:24:00.664Z,24.90
2019-02-19T16:26:41.455Z,24.33
2019-02-19T16:32:24.618Z,25.43
2019-02-19T16:47:05.917Z,28.20
2019-02-19T16:49:47.147Z,29.97
2019-02-19T16:52:37.951Z,28.13
2019-02-19T16:55:23.443Z,28.37
2019-02-19T16:58:17.917Z,26.10
2019-02-19T17:00:58.423Z,28.53
2019-02-19T17:03:37.309Z,22.70
2019-02-19T17:06:19.876Z,29.30
2019-02-19T17:18:01.601Z,24.80
2019-02-19T17:20:57.099Z,29.77
2019-02-19T17:23:29.345Z,25.67
2019-02-19T17:29:06.473Z,25.23
2019-02-19T17:32:05.148Z,27.70
2019-02-19T17:34:44.776Z,26.70
2019-02-19T17:37:20.498Z,24.00
2019-02-19T17:39:56.051Z,23.90
2019-02-19T17:42:51.625Z,27.77
2019-02-19T17:45:50.754Z,25.47
2019-02-19T17:48:44.401Z,22.13
2019-02-19T17:51:21.050Z,22.03
2019-02-19T17:57:12.846Z,20.07
2019-02-19T18:00:21.629Z,25.90
2019-02-19T18:03:10.308Z,21.97
2019-02-19T18:06:03.234Z,27.87
2019-02-19T18:08:53.459Z,25.50
2019-02-19T18:12:05.576Z,28.67
2019-02-19T18:15:03.509Z,24.73
2019-02-19T18:17:47.839Z,22.67
2019-02-19T18:23:40.470Z,25.73
2019-02-19T18:32:30.226Z,27.27
2019-02-19T18:38:34.287Z,29.60
2019-02-19T18:41:10.727Z,30.67
2019-02-19T18:44:08.760Z,31.87
2019-02-19T18:46:54.168Z,33.97
2019-02-19T18:52:29.831Z,33.23
2019-02-19T18:55:16.177Z,28.73
2019-02-19T18:58:00.217Z,37.87
2019-02-19T19:00:45.794Z,33.50
2019-02-19T19:03:30.561Z,32.80
2019-02-19T19:06:29.537Z,31.37
2019-02-19T19:12:03.577Z,25.73
2019-02-19T19:14:44.370Z,24.43
2019-02-19T19:17:19.929Z,22.07
2019-02-19T19:19:57.613Z,23.37
2019-02-19T19:22:47.080Z,25.60
2019-02-19T19:25:20.564Z,30.30
2019-02-19T19:27:55.557Z,30.27
2019-02-19T19:30:38.056Z,31.47
2019-02-19T19:36:09.177Z,27.73
2019-02-19T19:38:48.736Z,24.60
2019-02-19T19:41:28.116Z,25.10
2019-02-19T19:44:01.570Z,21.77
2019-02-19T19:46:34.250Z,21.03
2019-02-19T19:49:07.780Z,23.07
2019-02-19T19:51:50.994Z,20.60
2019-02-19T19:57:23.744Z,19.00
2019-02-19T20:00:04.723Z,22.43
2019-02-19T20:02:48.725Z,26.23
2019-02-19T20:05:29.307Z,25.47
2019-02-19T20:08:09.076Z,17.03
2019-02-19T20:10:44.925Z,18.83
2019-02-19T20:16:16.764Z,17.17
2019-02-19T20:22:05.908Z,13.97
2019-02-19T20:25:01.737Z,13.27
2019-02-19T20:31:31.232Z,11.20
2019-02-19T20:34:10.993Z,13.70
2019-02-19T20:37:07.008Z,15.80
2019-02-19T20:39:44.131Z,17.63
2019-02-19T20:42:32.833Z,14.67
2019-02-19T20:45:04.097Z,13.00
2019-02-19T20:47:40.435Z,15.90
2019-02-19T20:56:07.157Z,15.27
2019-02-19T21:01:47.480Z,14.43
2019-02-19T21:04:37.940Z,19.40
2019-02-19T21:07:42.065Z,12.63
2019-02-19T21:40:49.491Z,13.23
2019-02-19T22:32:05.458Z,12.57
2019-02-19T22:34:44.021Z,9.83
2019-02-19T22:49:46.164Z,10.47
2019-02-19T22:52:31.057Z,11.10
2019-02-19T22:55:20.644Z,14.77
2019-02-19T23:01:06.360Z,12.23
2019-02-19T23:03:56.974Z,9.07
2019-02-19T23:06:38.768Z,11.43
2019-02-19T23:09:25.786Z,13.27
2019-02-19T23:12:20.154Z,11.20
2019-02-19T23:15:05.594Z,9.00
2019-02-19T23:17:44.720Z,7.77
2019-02-19T23:20:21.109Z,12.80
2019-02-19T23:23:06.954Z,10.93
2019-02-19T23:25:49.845Z,11.77
2019-02-19T23:28:35.585Z,8.93
2019-02-19T23:31:23.409Z,12.10
2019-02-19T23:34:04.718Z,8.33
2019-02-19T23:43:12.015Z,10.70
2019-02-19T23:45:35.756Z,12.73
2019-02-19T23:48:11.309Z,12.83
2019-02-19T23:50:51.372Z,9.43
2019-02-19T23:53:23.139Z,11.20
2019-02-19T23:55:59.171Z,12.57
2019-02-19T23:58:30.903Z,12.13
